Latest Weather Observations for Terrey Hills

IDN60901

Issued at 7:31 pm EDT Monday 27 March 2017 (issued every 10 minutes, with the page automatically refreshed every 10 minutes)

About weather observations | Map of Sydney area stations | Latest observations for Sydney area | Other Formats
Station Details ID: 066059 Name: TERREY HILLS AWS Lat: -33.69 Lon: 151.23 Height: 199.0 m
Data from the previous 72 hours. | See also: Recent months at Terrey Hills
Date/Time
EDT
Temp
°C
App
Temp
°C
Dew
Point
°C
Rel
Hum
%
Delta-T
°C
Wind Press
QNH
hPa
Press
MSL
hPa
Rain since
9am
mm
Dir  Spd
km/h
Gust
km/h
Spd
kts
Gust
kts
27/07:30pm 21.7 23.5 21.2 97 0.3 NNE 13 20 7 11 - - 0.0
27/07:00pm 21.8 24.2 21.5 98 0.2 NNE 11 19 6 10 - - 0.0
27/06:30pm 22.0 24.4 21.5 97 0.3 NNE 11 22 6 12 - - 0.0
27/06:00pm 22.6 24.6 21.6 94 0.7 NE 13 22 7 12 - - 0.0
27/05:30pm 23.3 25.9 21.9 92 0.9 NE 11 20 6 11 - - 0.0
27/05:00pm 23.6 25.7 21.7 89 1.3 NE 13 24 7 13 - - 0.0
27/04:30pm 23.9 25.6 21.6 87 1.5 NE 15 26 8 14 - - 0.0
27/04:00pm 24.4 26.4 21.5 84 1.9 NE 13 20 7 11 - - 0.0
27/03:30pm 24.7 27.1 21.6 83 2.1 NNE 11 17 6 9 - - 0.0
27/03:00pm 24.9 27.8 21.8 83 2.1 NE 9 17 5 9 - - 0.0
27/02:30pm 24.9 27.2 21.4 81 2.3 NE 11 24 6 13 - - 0.0
27/02:00pm 25.3 27.7 21.6 80 2.5 NE 11 20 6 11 - - 0.0
27/01:30pm 25.3 28.1 21.6 80 2.5 NE 9 17 5 9 - - 0.0
27/01:00pm 24.7 26.4 21.0 80 2.4 ENE 13 20 7 11 - - 0.0
27/12:30pm 25.1 27.5 21.6 81 2.3 ENE 11 22 6 12 - - 0.0
27/12:00pm 23.7 26.1 20.0 80 2.4 NNE 7 15 4 8 - - 0.0
27/11:30am 24.0 25.5 19.7 77 2.8 N 11 20 6 11 - - 0.0
27/11:00am 22.7 24.5 20.4 87 1.5 N 11 17 6 9 - - 0.0
27/10:30am 22.6 24.8 20.5 88 1.4 N 9 13 5 7 - - 0.0
27/10:00am 22.0 24.8 20.5 91 1.0 N 6 9 3 5 - - 0.0
27/09:30am 21.1 23.9 20.4 96 0.5 NNW 6 9 3 5 - - 0.0
27/09:00am 20.5 23.2 20.3 99 0.1 NNW 6 9 3 5 - - 0.2
27/08:30am 19.7 22.1 19.7 100 0.0 NNW 6 7 3 4 - - 0.2
27/08:00am 19.0 21.1 19.0 100 0.0 N 6 9 3 5 - - 0.2
27/07:30am 18.9 20.8 18.9 100 0.0 N 7 11 4 6 - - 0.2
27/07:00am 19.0 20.5 19.0 100 0.0 N 9 13 5 7 - - 0.0
27/06:30am 19.1 20.7 19.1 100 0.0 N 9 13 5 7 - - 0.0
27/06:00am 19.0 20.5 19.0 100 0.0 N 9 11 5 6 - - 0.0
27/05:30am 18.9 20.8 18.9 100 0.0 N 7 9 4 5 - - 0.0
27/05:00am 18.9 20.8 18.9 100 0.0 N 7 9 4 5 - - 0.0
27/04:30am 18.6 20.5 18.6 100 0.0 NNW 6 7 3 4 - - 0.0
27/04:00am 18.7 20.5 18.7 100 0.0 NNW 7 9 4 5 - - 0.0
27/03:30am 18.7 20.5 18.7 100 0.0 NNW 7 9 4 5 - - 0.0
27/03:00am 18.8 20.8 18.8 100 0.0 NNW 6 7 3 4 - - 0.0
27/02:30am 19.1 21.3 19.1 100 0.0 NNW 6 9 3 5 - - 0.0
27/02:00am 19.4 21.5 19.4 100 0.0 N 7 11 4 6 - - 0.0
27/01:30am 19.6 21.4 19.6 100 0.0 N 9 13 5 7 - - 0.0
27/01:00am 19.8 21.7 19.8 100 0.0 N 9 13 5 7 - - 0.0
27/12:30am 19.9 21.9 19.9 100 0.0 N 9 13 5 7 - - 0.0
27/12:00am 19.8 22.1 19.8 100 0.0 NNE 7 13 4 7 - - 0.0
 
Date/Time
EDT
Temp
°C
App
Temp
°C
Dew
Point
°C
Rel
Hum
%
Delta-T
°C
Wind Press
QNH
hPa
Press
MSL
hPa
Rain since
9am
mm
Dir  Spd
km/h
Gust
km/h
Spd
kts
Gust
kts
26/11:30pm 19.9 22.2 19.9 100 0.0 NNE 7 13 4 7 - - 0.0
26/11:00pm 20.0 22.4 20.0 100 0.0 NNE 7 13 4 7 - - 0.0
26/10:30pm - - - - - NE 7 13 4 7 - - 0.0
26/10:00pm 20.4 22.6 20.4 100 0.0 NNE 9 13 5 7 - - 0.0
26/09:30pm 20.1 22.7 20.1 100 0.0 NE 6 9 3 5 - - 0.0
26/09:00pm 20.1 22.5 20.1 100 0.0 NE 7 11 4 6 - - 0.0
26/08:30pm 20.5 22.7 20.5 100 0.0 NE 9 15 5 8 - - 0.0
26/08:00pm 20.8 23.2 20.8 100 0.0 ENE 9 15 5 8 - - 0.0
26/07:30pm 20.7 23.0 20.7 100 0.0 NE 9 19 5 10 - - 0.0
26/07:00pm 21.2 23.4 21.2 100 0.0 ENE 11 19 6 10 - - 0.0
26/06:30pm 21.8 25.0 21.3 97 0.3 NNE 6 9 3 5 - - 0.0
26/06:00pm 22.3 24.3 21.5 95 0.5 ENE 13 24 7 13 - - 0.0
26/05:30pm 23.2 25.6 21.6 91 1.1 ENE 11 20 6 11 - - 0.0
26/05:00pm 23.4 25.5 21.7 90 1.1 ENE 13 24 7 13 - - 0.0
26/04:30pm 23.8 25.7 21.3 86 1.7 E 13 19 7 10 - - 0.0
26/04:00pm 24.1 26.0 21.4 85 1.8 ESE 13 19 7 10 - - 0.0
26/03:30pm 24.6 26.9 21.3 82 2.2 E 11 17 6 9 - - 0.0
26/03:00pm 24.9 27.4 21.8 83 2.1 E 11 19 6 10 - - 0.0
26/02:30pm 25.3 28.1 21.6 80 2.5 ENE 9 17 5 9 - - 0.0
26/02:00pm 25.3 27.9 21.2 78 2.7 ENE 9 15 5 8 - - 0.0
26/01:30pm 24.6 26.8 20.5 78 2.7 ESE 9 17 5 9 - - 0.0
26/01:00pm 24.9 27.4 21.0 79 2.6 ENE 9 15 5 8 - - 0.0
26/12:30pm 24.2 26.6 20.1 78 2.7 ENE 7 11 4 6 - - 0.0
26/12:00pm 23.6 26.2 20.5 83 2.0 ESE 7 15 4 8 - - 0.0
26/11:30am 24.3 28.2 21.2 83 2.1 NE 2 7 1 4 - - 0.0
26/11:00am 23.3 26.5 20.4 84 1.9 E 4 6 2 3 - - 0.0
26/10:30am 23.6 27.4 20.1 81 2.3 CALM 0 6 0 3 - - 0.0
26/10:00am 22.6 26.0 20.1 86 1.6 NW 2 4 1 2 - - 0.0
26/09:30am 21.3 24.9 20.6 96 0.5 W 2 4 1 2 - - 0.0
26/09:00am 20.2 23.3 20.2 100 0.0 W 4 7 2 4 - - 0.6
26/08:30am 19.2 21.4 19.2 100 0.0 W 6 7 3 4 - - 0.6
26/08:00am 18.2 19.8 18.2 100 0.0 W 7 9 4 5 - - 0.6
26/07:30am 17.5 18.8 17.5 100 0.0 W 7 9 4 5 - - 0.6
26/07:00am 17.3 18.1 17.3 100 0.0 W 9 9 5 5 - - 0.6
26/06:30am 17.5 18.8 17.5 100 0.0 W 7 9 4 5 - - 0.6
26/06:00am 17.8 19.4 17.8 100 0.0 WSW 6 7 3 4 - - 0.6
26/05:30am 17.9 19.3 17.9 100 0.0 W 7 9 4 5 - - 0.6
26/05:00am 18.0 19.7 18.0 100 0.0 W 6 7 3 4 - - 0.6
26/04:30am 18.0 19.5 18.0 100 0.0 W 7 9 4 5 - - 0.6
26/04:00am 18.1 19.8 18.1 100 0.0 WSW 6 6 3 3 - - 0.6
26/03:30am 18.2 20.7 18.2 100 0.0 WSW 2 4 1 2 - - 0.6
26/03:00am 18.3 20.1 18.3 100 0.0 W 6 6 3 3 - - 0.6
26/02:30am 18.4 20.1 18.4 100 0.0 W 7 9 4 5 - - 0.6
26/02:00am 19.0 21.5 19.0 100 0.0 WNW 4 6 2 3 - - 0.6
26/01:30am 19.4 22.1 19.4 100 0.0 WNW 4 6 2 3 - - 0.6
26/01:00am 19.8 22.2 19.6 99 0.1 NNW 6 7 3 4 - - 0.6
26/12:30am 19.0 21.5 19.0 100 0.0 NW 4 6 2 3 - - 0.6
26/12:00am 19.6 21.8 19.1 97 0.3 NNW 6 7 3 4 - - 0.6
 
Date/Time
EDT
Temp
°C
App
Temp
°C
Dew
Point
°C
Rel
Hum
%
Delta-T
°C
Wind Press
QNH
hPa
Press
MSL
hPa
Rain since
9am
mm
Dir  Spd
km/h
Gust
km/h
Spd
kts
Gust
kts
25/11:30pm 20.1 22.3 19.3 95 0.5 N 6 9 3 5 - - 0.6
25/11:00pm 20.0 22.2 19.2 95 0.5 N 6 9 3 5 - - 0.6
25/10:30pm 19.8 21.7 19.0 95 0.5 N 7 11 4 6 - - 0.6
25/10:00pm 20.0 21.9 19.0 94 0.6 N 7 11 4 6 - - 0.6
25/09:30pm 19.9 22.1 19.1 95 0.5 NNE 6 11 3 6 - - 0.6
25/09:00pm 20.0 22.2 19.2 95 0.5 NNE 6 9 3 5 - - 0.6
25/08:30pm 20.0 22.6 19.2 95 0.5 NE 4 9 2 5 - - 0.6
25/08:00pm 19.9 22.4 19.1 95 0.5 NE 4 9 2 5 - - 0.6
25/07:30pm 19.9 22.4 19.1 95 0.5 NNE 4 7 2 4 - - 0.6
25/07:00pm 19.9 22.1 19.1 95 0.5 NNE 6 9 3 5 - - 0.6
25/06:30pm 19.9 21.9 19.1 95 0.5 NE 7 13 4 7 - - 0.6
25/06:00pm 20.3 22.3 19.1 93 0.8 ENE 7 15 4 8 - - 0.6
25/05:30pm 20.5 22.5 19.2 92 0.8 ENE 7 13 4 7 - - 0.6
25/05:00pm 20.7 22.2 19.0 90 1.1 E 9 13 5 7 - - 0.6
25/04:30pm 21.0 23.4 18.9 88 1.3 ENE 4 7 2 4 - - 0.6
25/04:00pm 21.4 23.5 19.0 86 1.5 NE 6 9 3 5 - - 0.6
25/03:30pm 22.1 24.1 19.1 83 1.9 NNE 7 13 4 7 - - 0.6
25/03:00pm 21.8 23.4 19.2 85 1.7 NE 9 17 5 9 - - 0.6
25/02:30pm 21.4 23.1 18.6 84 1.8 NNE 7 15 4 8 - - 0.6
25/02:00pm 21.1 23.0 18.9 87 1.4 NE 7 13 4 7 - - 0.6
25/01:30pm 20.5 21.9 17.7 84 1.7 NE 7 15 4 8 - - 0.2
25/01:00pm 21.1 22.6 17.7 81 2.1 NNE 6 9 3 5 - - 0.2
25/12:30pm 21.7 23.0 17.1 75 2.8 NNE 6 11 3 6 - - 0.2
25/12:00pm 21.4 22.5 17.2 77 2.6 NNE 7 13 4 7 - - 0.2
25/11:30am 21.5 22.1 15.8 70 3.4 N 7 13 4 7 - - 0.2
25/11:00am 21.6 22.6 16.8 74 2.9 N 7 13 4 7 - - 0.2
25/10:30am 21.6 23.9 18.6 83 1.9 N 4 7 2 4 - - 0.0
25/10:00am 21.0 22.7 18.0 83 1.9 N 6 9 3 5 - - 0.0
25/09:30am 21.1 24.3 18.9 87 1.4 CALM 0 4 0 2 - - 0.0
25/09:00am 19.0 21.2 18.3 96 0.4 WNW 4 4 2 2 - - 1.6
25/08:30am 18.1 20.2 18.1 100 0.0 WNW 4 6 2 3 - - 1.6
25/08:00am 17.0 18.3 17.0 100 0.0 WNW 6 6 3 3 - - 1.6
25/07:30am 16.8 18.0 16.8 100 0.0 WNW 6 7 3 4 - - 1.6
25/07:00am 17.3 19.7 17.0 98 0.2 CALM 0 0 0 0 - - 1.6
25/06:30am 17.5 20.1 17.5 100 0.0 CALM 0 2 0 1 - - 1.6
25/06:00am 17.2 18.9 17.2 100 0.0 WNW 4 6 2 3 - - 1.6
25/05:30am 17.2 18.5 17.2 100 0.0 WNW 6 6 3 3 - - 1.6
25/05:00am 17.2 18.9 17.2 100 0.0 WNW 4 4 2 2 - - 1.6
25/04:30am 17.2 18.8 17.0 99 0.1 WNW 4 6 2 3 - - 1.6
25/04:00am 17.4 18.9 16.6 95 0.5 NW 4 6 2 3 - - 1.6
25/03:30am 17.1 18.8 17.1 100 0.0 NW 4 6 2 3 - - 1.6
25/03:00am 17.2 19.2 17.0 99 0.1 NW 2 4 1 2 - - 1.6
25/02:30am 17.5 19.6 17.2 98 0.2 WNW 2 4 1 2 - - 1.6
25/02:00am 17.6 20.0 17.1 97 0.3 CALM 0 4 0 2 - - 1.6
25/01:30am 17.9 20.2 16.8 93 0.7 CALM 0 2 0 1 - - 1.6
25/01:00am 18.4 19.6 15.8 85 1.6 E 4 6 2 3 - - 1.6
25/12:30am 18.4 19.1 16.0 86 1.4 E 7 9 4 5 - - 1.6
25/12:00am 18.3 19.2 16.5 89 1.1 E 7 13 4 7 - - 1.6
 
Date/Time
EDT
Temp
°C
App
Temp
°C
Dew
Point
°C
Rel
Hum
%
Delta-T
°C
Wind Press
QNH
hPa
Press
MSL
hPa
Rain since
9am
mm
Dir  Spd
km/h
Gust
km/h
Spd
kts
Gust
kts
24/11:30pm 18.6 19.0 16.2 86 1.4 ESE 9 15 5 8 - - 1.6
24/11:00pm 18.7 20.1 16.3 86 1.4 SE 4 6 2 3 - - 1.6
24/10:30pm 18.7 20.1 16.5 87 1.3 ESE 4 7 2 4 - - 1.6
24/10:00pm 18.4 19.6 16.9 91 0.9 E 6 7 3 4 - - 1.6
24/09:30pm 18.6 19.8 16.9 90 1.0 SE 6 11 3 6 - - 1.6
24/09:00pm 18.7 19.4 17.0 90 1.0 ESE 9 15 5 8 - - 1.6
24/08:30pm 18.3 19.3 17.8 97 0.3 ESE 9 13 5 7 - - 1.6
24/08:00pm 18.0 19.5 18.0 100 0.0 E 7 9 4 5 - - 1.6

Latest Capital City Observations: Canberra | Sydney | Melbourne | Brisbane | Adelaide | Perth | Hobart | Darwin

Other Formats:

Comma delimited format used in spreadsheet applications
http://www.bom.gov.au/fwo/IDN60901/IDN60901.94759.axf

JavaScript Object Notation format (JSON) in row-major order
http://www.bom.gov.au/fwo/IDN60901/IDN60901.94759.json